Terminal Aerodrome Forecast
Issued by NWS

Home | Current Version | Previous Version | Text Only | Print | Product List | Glossary On
Versions: 1 2 3 4 5 6 7 8 9 10 11 12 13
000
FTUS43 KIWX 270520
TAFSBN
TAF
KSBN 270520Z 2706/2806 16004KT P6SM OVC130
     FM270800 17004KT P6SM VCSH OVC080
     FM271300 VRB03KT P6SM OVC070
     FM271800 03004KT P6SM VCSH BKN050
     FM280000 01007KT P6SM BKN100=

USA.gov is the U.S. government's official web portal to all federal, state and local government web resources and services.